CFG7NY EDDF-LKPR
Flight info
| Callsign | CFG7NY |
|---|---|
| Flight time | 0h 42m |
| Altitude | 31000 |
| Route | SULUS7S/18 SULUS Z650 TONSU Z35 ODOMO DCT LOMKI |
| Aircraft | A320/M-SDE3FGHIJ1LORVWXYZ/LB1 |
Departure
| Time | 2026-05-06 13:02 |
|---|---|
| Airport | Frankfurt Main Airport (EDDF) |
Arrival
| Time | 2026-05-06 13:44 |
|---|---|
| Airport | Václav Havel Airport Prague (LKPR) |
| Time | Latitude | Longitude | Altitude | Speed | Heading |
|---|---|---|---|---|---|
| 2026-05-06 12:25 | 50.03600 | 8.53726 | 337 ft | 0 kts | 159° |
| 2026-05-06 12:59 | 50.03572 | 8.53742 | 339 ft | 10 kts | 159° |
| 2026-05-06 13:00 | 50.03513 | 8.53709 | 335 ft | 12 kts | 248° |
| 2026-05-06 13:00 | 50.03480 | 8.53573 | 338 ft | 15 kts | 249° |
| 2026-05-06 13:00 | 50.03440 | 8.53406 | 337 ft | 18 kts | 250° |
| 2026-05-06 13:00 | 50.03397 | 8.53223 | 336 ft | 18 kts | 249° |
| 2026-05-06 13:01 | 50.03352 | 8.53038 | 335 ft | 19 kts | 249° |
| 2026-05-06 13:01 | 50.03323 | 8.52917 | 334 ft | 18 kts | 250° |
| 2026-05-06 13:01 | 50.03255 | 8.52653 | 332 ft | 20 kts | 236° |
| 2026-05-06 13:01 | 50.03169 | 8.52595 | 336 ft | 22 kts | 181° |
| 2026-05-06 13:02 | 50.02865 | 8.52596 | 333 ft | 79 kts | 180° |
| 2026-05-06 13:02 | 50.02093 | 8.52606 | 337 ft | 142 kts | 179° |
| 2026-05-06 13:02 | 50.01064 | 8.52621 | 977 ft | 145 kts | 184° |
| 2026-05-06 13:02 | 50.00045 | 8.52628 | 1763 ft | 150 kts | 182° |
| 2026-05-06 13:03 | 49.98925 | 8.52627 | 2233 ft | 172 kts | 182° |
| 2026-05-06 13:03 | 49.97645 | 8.52674 | 2628 ft | 196 kts | 174° |
| 2026-05-06 13:03 | 49.96348 | 8.53681 | 3025 ft | 228 kts | 137° |
| 2026-05-06 13:03 | 49.95460 | 8.55829 | 3839 ft | 238 kts | 122° |
| 2026-05-06 13:04 | 49.94661 | 8.58085 | 4896 ft | 239 kts | 122° |
| 2026-05-06 13:04 | 49.94071 | 8.60540 | 5800 ft | 251 kts | 102° |
| 2026-05-06 13:04 | 49.93914 | 8.63310 | 6335 ft | 276 kts | 95° |
| 2026-05-06 13:04 | 49.93729 | 8.66337 | 7148 ft | 285 kts | 104° |
| 2026-05-06 13:05 | 49.93040 | 8.69231 | 8078 ft | 287 kts | 122° |
| 2026-05-06 13:05 | 49.91796 | 8.71660 | 9050 ft | 288 kts | 141° |
| 2026-05-06 13:05 | 49.90205 | 8.73496 | 9970 ft | 291 kts | 147° |
| 2026-05-06 13:05 | 49.88618 | 8.75642 | 10482 ft | 314 kts | 134° |
| 2026-05-06 13:06 | 49.87329 | 8.78437 | 11263 ft | 324 kts | 122° |
| 2026-05-06 13:06 | 49.86244 | 8.81536 | 12142 ft | 328 kts | 121° |
| 2026-05-06 13:06 | 49.85133 | 8.84655 | 13026 ft | 333 kts | 121° |
| 2026-05-06 13:06 | 49.83998 | 8.87804 | 13865 ft | 336 kts | 122° |
| 2026-05-06 13:07 | 49.82844 | 8.90983 | 14637 ft | 339 kts | 122° |
| 2026-05-06 13:07 | 49.81676 | 8.94180 | 15430 ft | 342 kts | 122° |
| 2026-05-06 13:07 | 49.80498 | 8.97397 | 16222 ft | 345 kts | 122° |
| 2026-05-06 13:07 | 49.79307 | 9.00647 | 17017 ft | 348 kts | 122° |
| 2026-05-06 13:08 | 49.78122 | 9.03890 | 17782 ft | 351 kts | 122° |
| 2026-05-06 13:08 | 49.76919 | 9.07212 | 18476 ft | 355 kts | 120° |
| 2026-05-06 13:08 | 49.75965 | 9.10766 | 19110 ft | 362 kts | 110° |
| 2026-05-06 13:08 | 49.75338 | 9.14554 | 19747 ft | 366 kts | 106° |
| 2026-05-06 13:09 | 49.74730 | 9.18409 | 20387 ft | 369 kts | 106° |
| 2026-05-06 13:09 | 49.74113 | 9.22280 | 21033 ft | 373 kts | 106° |
| 2026-05-06 13:09 | 49.73482 | 9.26195 | 21677 ft | 376 kts | 106° |
| 2026-05-06 13:09 | 49.72841 | 9.30135 | 22315 ft | 379 kts | 106° |
| 2026-05-06 13:10 | 49.72198 | 9.34053 | 22934 ft | 383 kts | 106° |
| 2026-05-06 13:10 | 49.71541 | 9.38055 | 23521 ft | 386 kts | 107° |
| 2026-05-06 13:10 | 49.70877 | 9.42110 | 24071 ft | 389 kts | 107° |
| 2026-05-06 13:10 | 49.70208 | 9.46189 | 24627 ft | 392 kts | 107° |
| 2026-05-06 13:11 | 49.69536 | 9.50284 | 25178 ft | 394 kts | 107° |
| 2026-05-06 13:11 | 49.68858 | 9.54410 | 25719 ft | 397 kts | 108° |
| 2026-05-06 13:11 | 49.68184 | 9.58501 | 26242 ft | 399 kts | 108° |
| 2026-05-06 13:11 | 49.67598 | 9.62725 | 26764 ft | 404 kts | 101° |
| 2026-05-06 13:12 | 49.67433 | 9.67095 | 27271 ft | 411 kts | 92° |
| 2026-05-06 13:12 | 49.67731 | 9.71526 | 27766 ft | 418 kts | 83° |
| 2026-05-06 13:12 | 49.68449 | 9.75913 | 28233 ft | 423 kts | 78° |
| 2026-05-06 13:12 | 49.69224 | 9.80269 | 28684 ft | 426 kts | 78° |
| 2026-05-06 13:13 | 49.70002 | 9.84697 | 29123 ft | 429 kts | 79° |
| 2026-05-06 13:13 | 49.70787 | 9.89161 | 29558 ft | 432 kts | 78° |
| 2026-05-06 13:13 | 49.71802 | 9.93574 | 29948 ft | 439 kts | 70° |
| 2026-05-06 13:13 | 49.73231 | 9.97785 | 30223 ft | 448 kts | 61° |
| 2026-05-06 13:14 | 49.75024 | 10.01772 | 30535 ft | 453 kts | 57° |
| 2026-05-06 13:14 | 49.76878 | 10.05754 | 30745 ft | 460 kts | 58° |
| 2026-05-06 13:14 | 49.78755 | 10.09799 | 30782 ft | 462 kts | 58° |
| 2026-05-06 13:15 | 49.82479 | 10.17870 | 30774 ft | 462 kts | 58° |
| 2026-05-06 13:15 | 49.86081 | 10.26111 | 30778 ft | 457 kts | 68° |
| 2026-05-06 13:15 | 49.87140 | 10.30695 | 30780 ft | 447 kts | 84° |
| 2026-05-06 13:16 | 49.87478 | 10.35443 | 30781 ft | 441 kts | 92° |
| 2026-05-06 13:16 | 49.87849 | 10.44883 | 30786 ft | 441 kts | 92° |
| 2026-05-06 13:17 | 49.88212 | 10.54378 | 30757 ft | 441 kts | 92° |
| 2026-05-06 13:17 | 49.88570 | 10.63894 | 30766 ft | 442 kts | 92° |
| 2026-05-06 13:18 | 49.88925 | 10.73429 | 30768 ft | 443 kts | 92° |
| 2026-05-06 13:18 | 49.89274 | 10.82923 | 30769 ft | 443 kts | 92° |
| 2026-05-06 13:19 | 49.89618 | 10.92469 | 30774 ft | 443 kts | 92° |
| 2026-05-06 13:19 | 49.89956 | 11.02045 | 30763 ft | 444 kts | 92° |
| 2026-05-06 13:20 | 49.90279 | 11.11566 | 30766 ft | 445 kts | 92° |
| 2026-05-06 13:20 | 49.90595 | 11.21173 | 30767 ft | 446 kts | 92° |
| 2026-05-06 13:21 | 49.90903 | 11.30824 | 30770 ft | 446 kts | 93° |
| 2026-05-06 13:21 | 49.91203 | 11.40458 | 30775 ft | 446 kts | 93° |
| 2026-05-06 13:22 | 49.91493 | 11.50052 | 30757 ft | 449 kts | 92° |
| 2026-05-06 13:22 | 49.91781 | 11.59772 | 30757 ft | 451 kts | 92° |
| 2026-05-06 13:23 | 49.92063 | 11.69495 | 30762 ft | 452 kts | 92° |
| 2026-05-06 13:23 | 49.92340 | 11.79267 | 30288 ft | 453 kts | 92° |
| 2026-05-06 13:23 | 49.92475 | 11.84138 | 29793 ft | 451 kts | 92° |
| 2026-05-06 13:24 | 49.92606 | 11.89003 | 29194 ft | 450 kts | 92° |
| 2026-05-06 13:24 | 49.92738 | 11.93856 | 28631 ft | 450 kts | 92° |
| 2026-05-06 13:24 | 49.92867 | 11.98649 | 28075 ft | 450 kts | 92° |
| 2026-05-06 13:24 | 49.92993 | 12.03491 | 27539 ft | 450 kts | 92° |
| 2026-05-06 13:25 | 49.93112 | 12.08351 | 27008 ft | 450 kts | 92° |
| 2026-05-06 13:25 | 49.93225 | 12.13214 | 26487 ft | 450 kts | 92° |
| 2026-05-06 13:25 | 49.93342 | 12.18072 | 25978 ft | 450 kts | 92° |
| 2026-05-06 13:25 | 49.93461 | 12.22912 | 25478 ft | 446 kts | 92° |
| 2026-05-06 13:26 | 49.93577 | 12.27641 | 24989 ft | 441 kts | 92° |
| 2026-05-06 13:26 | 49.93689 | 12.32392 | 24504 ft | 436 kts | 92° |
| 2026-05-06 13:26 | 49.93746 | 12.37072 | 24006 ft | 431 kts | 95° |
| 2026-05-06 13:26 | 49.93685 | 12.41719 | 23534 ft | 428 kts | 97° |
| 2026-05-06 13:27 | 49.93543 | 12.46300 | 23111 ft | 424 kts | 98° |
| 2026-05-06 13:27 | 49.93366 | 12.50809 | 22672 ft | 421 kts | 98° |
| 2026-05-06 13:27 | 49.93184 | 12.55332 | 22242 ft | 418 kts | 98° |
| 2026-05-06 13:27 | 49.93016 | 12.59831 | 21815 ft | 415 kts | 98° |
| 2026-05-06 13:28 | 49.92865 | 12.64297 | 21395 ft | 413 kts | 97° |
| 2026-05-06 13:28 | 49.92727 | 12.68732 | 20983 ft | 410 kts | 97° |
| 2026-05-06 13:28 | 49.92597 | 12.73160 | 20572 ft | 407 kts | 97° |
| 2026-05-06 13:28 | 49.92470 | 12.77530 | 20170 ft | 404 kts | 96° |
| 2026-05-06 13:29 | 49.92342 | 12.81829 | 19768 ft | 402 kts | 96° |
| 2026-05-06 13:29 | 49.92206 | 12.86153 | 19365 ft | 402 kts | 97° |
| 2026-05-06 13:29 | 49.92068 | 12.90486 | 18994 ft | 401 kts | 97° |
| 2026-05-06 13:29 | 49.91928 | 12.94804 | 18634 ft | 399 kts | 97° |
| 2026-05-06 13:30 | 49.91788 | 12.99090 | 18281 ft | 397 kts | 97° |
| 2026-05-06 13:30 | 49.91650 | 13.03344 | 17918 ft | 392 kts | 96° |
| 2026-05-06 13:30 | 49.91512 | 13.07557 | 17513 ft | 389 kts | 96° |
| 2026-05-06 13:30 | 49.91371 | 13.11736 | 17112 ft | 386 kts | 97° |
| 2026-05-06 13:31 | 49.91227 | 13.15894 | 16715 ft | 384 kts | 97° |
| 2026-05-06 13:31 | 49.91081 | 13.20028 | 16325 ft | 382 kts | 97° |
| 2026-05-06 13:31 | 49.90939 | 13.24083 | 15944 ft | 380 kts | 97° |
| 2026-05-06 13:31 | 49.90794 | 13.28166 | 15565 ft | 378 kts | 97° |
| 2026-05-06 13:32 | 49.90648 | 13.32233 | 15180 ft | 376 kts | 97° |
| 2026-05-06 13:32 | 49.90502 | 13.36279 | 14818 ft | 374 kts | 97° |
| 2026-05-06 13:32 | 49.90358 | 13.40296 | 14459 ft | 372 kts | 96° |
| 2026-05-06 13:32 | 49.90210 | 13.44300 | 14097 ft | 371 kts | 97° |
| 2026-05-06 13:33 | 49.90079 | 13.48294 | 13743 ft | 370 kts | 94° |
| 2026-05-06 13:33 | 49.90160 | 13.52236 | 13495 ft | 370 kts | 91° |
| 2026-05-06 13:33 | 49.90255 | 13.56215 | 13173 ft | 368 kts | 91° |
| 2026-05-06 13:33 | 49.90346 | 13.60180 | 12860 ft | 366 kts | 91° |
| 2026-05-06 13:34 | 49.90433 | 13.64126 | 12543 ft | 364 kts | 91° |
| 2026-05-06 13:34 | 49.90518 | 13.68043 | 12231 ft | 362 kts | 91° |
| 2026-05-06 13:34 | 49.90601 | 13.71932 | 11922 ft | 359 kts | 91° |
| 2026-05-06 13:34 | 49.90682 | 13.75797 | 11607 ft | 358 kts | 91° |
| 2026-05-06 13:35 | 49.90762 | 13.79648 | 11299 ft | 356 kts | 91° |
| 2026-05-06 13:35 | 49.90839 | 13.83478 | 10993 ft | 354 kts | 91° |
| 2026-05-06 13:35 | 49.90916 | 13.87190 | 10772 ft | 342 kts | 91° |
| 2026-05-06 13:35 | 49.90991 | 13.90797 | 10647 ft | 328 kts | 91° |
| 2026-05-06 13:36 | 49.91061 | 13.94271 | 10531 ft | 315 kts | 91° |
| 2026-05-06 13:36 | 49.91128 | 13.97617 | 10410 ft | 306 kts | 91° |
| 2026-05-06 13:36 | 49.91191 | 14.00913 | 10204 ft | 304 kts | 91° |
| 2026-05-06 13:36 | 49.91251 | 14.04183 | 9868 ft | 302 kts | 91° |
| 2026-05-06 13:37 | 49.91308 | 14.07433 | 9514 ft | 300 kts | 91° |
| 2026-05-06 13:37 | 49.91363 | 14.10622 | 9148 ft | 297 kts | 91° |
| 2026-05-06 13:37 | 49.91418 | 14.13819 | 8785 ft | 295 kts | 91° |
| 2026-05-06 13:37 | 49.91474 | 14.16992 | 8423 ft | 293 kts | 91° |
| 2026-05-06 13:38 | 49.91530 | 14.20142 | 8069 ft | 291 kts | 91° |
| 2026-05-06 13:38 | 49.91584 | 14.23265 | 7704 ft | 288 kts | 91° |
| 2026-05-06 13:38 | 49.91637 | 14.26374 | 7354 ft | 286 kts | 91° |
| 2026-05-06 13:38 | 49.91688 | 14.29435 | 7004 ft | 281 kts | 91° |
| 2026-05-06 13:39 | 49.91738 | 14.32444 | 6642 ft | 277 kts | 91° |
| 2026-05-06 13:39 | 49.91786 | 14.35424 | 6279 ft | 274 kts | 91° |
| 2026-05-06 13:39 | 49.92074 | 14.38298 | 5908 ft | 275 kts | 72° |
| 2026-05-06 13:39 | 49.93064 | 14.40813 | 5516 ft | 275 kts | 46° |
| 2026-05-06 13:40 | 49.94637 | 14.42475 | 5138 ft | 274 kts | 22° |
| 2026-05-06 13:40 | 49.96414 | 14.43469 | 4780 ft | 266 kts | 20° |
| 2026-05-06 13:40 | 49.98103 | 14.44395 | 4521 ft | 248 kts | 19° |
| 2026-05-06 13:40 | 49.99699 | 14.45012 | 4261 ft | 231 kts | 357° |
| 2026-05-06 13:41 | 50.01138 | 14.44268 | 3962 ft | 214 kts | 317° |
| 2026-05-06 13:41 | 50.02093 | 14.42542 | 3573 ft | 207 kts | 303° |
| 2026-05-06 13:41 | 50.02922 | 14.40810 | 3256 ft | 194 kts | 304° |
| 2026-05-06 13:41 | 50.03695 | 14.39209 | 2994 ft | 179 kts | 303° |
| 2026-05-06 13:42 | 50.04431 | 14.37691 | 2776 ft | 173 kts | 303° |
| 2026-05-06 13:42 | 50.05152 | 14.36204 | 2543 ft | 169 kts | 302° |
| 2026-05-06 13:42 | 50.05834 | 14.34802 | 2330 ft | 155 kts | 303° |
| 2026-05-06 13:42 | 50.06464 | 14.33504 | 2140 ft | 148 kts | 303° |
| 2026-05-06 13:43 | 50.07079 | 14.32233 | 1938 ft | 147 kts | 304° |
| 2026-05-06 13:43 | 50.07698 | 14.30955 | 1735 ft | 148 kts | 304° |
| 2026-05-06 13:43 | 50.08314 | 14.29680 | 1504 ft | 150 kts | 306° |
| 2026-05-06 13:43 | 50.08937 | 14.28398 | 1289 ft | 148 kts | 305° |
| 2026-05-06 13:44 | 50.09529 | 14.27172 | 1208 ft | 129 kts | 306° |
| 2026-05-06 13:44 | 50.09961 | 14.26272 | 1197 ft | 73 kts | 307° |
| 2026-05-06 13:44 | 50.10193 | 14.25795 | 1187 ft | 36 kts | 310° |
| 2026-05-06 13:44 | 50.10343 | 14.25663 | 1185 ft | 18 kts | 347° |
| 2026-05-06 13:45 | 50.10426 | 14.25659 | 1183 ft | 11 kts | 4° |
| 2026-05-06 13:45 | 50.10501 | 14.25867 | 1176 ft | 15 kts | 79° |
| 2026-05-06 13:45 | 50.10523 | 14.26044 | 1173 ft | 18 kts | 78° |
| 2026-05-06 13:46 | 50.10536 | 14.26209 | 1174 ft | 15 kts | 100° |
| 2026-05-06 13:46 | 50.10487 | 14.26350 | 1171 ft | 14 kts | 122° |
| 2026-05-06 13:46 | 50.10450 | 14.26436 | 1170 ft | 4 kts | 113° |
| 2026-05-06 13:46 | 50.10464 | 14.26459 | 1174 ft | 3 kts | 30° |
| 2026-05-06 13:47 | 50.10481 | 14.26477 | 1173 ft | 3 kts | 34° |
| 2026-05-06 13:47 | 50.10486 | 14.26482 | 1173 ft | 0 kts | 34° |